Date,TemperatureHighF,TemperatureAvgF,TemperatureLowF,DewpointHighF,DewpointAvgF,DewpointLowF,HumidityHigh,HumidityAvg,HumidityLow,PressureMaxIn,PressureMinIn,WindSpeedMaxMPH,WindSpeedAvgMPH,GustSpeedMaxMPH,PrecipitationSumIn
2013-1-1,36,28,11,26,5,-17,76,43,19,29.90,29.69,0,0,0,0.00
2013-1-2,31,14,0,9,-8,-24,63,39,19,30.11,29.86,0,0,0,0.00
2013-1-3,21,8,-6,2,-14,-27,56,37,19,30.12,29.94,0,0,0,0.00
2013-1-4,41,23,6,21,9,-4,68,55,32,29.94,29.77,0,0,0,0.00
2013-1-5,42,32,17,19,10,-5,66,42,19,30.21,29.82,0,0,0,0.00
2013-1-6,44,29,20,27,19,10,79,66,45,30.16,29.87,0,0,0,0.00
2013-1-7,38,27,13,29,15,0,85,64,23,30.33,29.93,0,0,0,0.00
2013-1-8,48,25,10,29,14,2,81,64,38,30.32,30.21,0,0,0,0.00
2013-1-9,39,27,15,30,20,8,82,74,58,30.33,29.96,0,0,0,0.00
2013-1-10,44,40,30,32,17,10,84,41,25,30.40,30.04,0,0,0,0.00
2013-1-11,38,30,18,30,22,12,86,73,58,30.46,30.12,0,0,0,0.00
2013-1-12,46,38,33,41,34,30,90,86,79,30.13,30.06,0,0,0,0.00
2013-1-13,46,40,35,43,37,32,93,90,88,30.09,29.93,0,0,0,0.00
2013-1-14,52,44,36,50,35,20,96,73,44,30.23,29.83,0,0,0,0.00
2013-1-15,41,33,24,26,19,15,78,57,42,30.28,30.17,0,0,0,0.00
2013-1-16,34,32,30,30,27,22,87,80,70,30.19,29.77,0,0,0,0.00
2013-1-17,43,33,26,38,22,2,90,67,35,30.05,29.80,0,0,0,0.00
2013-1-18,26,18,9,4,-13,-22,59,26,19,30.38,29.99,0,0,0,0.00
2013-1-19,45,32,17,25,13,2,71,46,35,30.30,29.81,0,0,0,0.00
2013-1-20,53,37,24,30,14,-12,72,43,19,29.92,29.51,0,0,0,0.00
2013-1-21,31,22,12,12,-2,-17,68,40,19,30.04,29.73,0,0,0,0.00
2013-1-22,20,15,8,10,-10,-25,69,36,19,30.04,29.71,0,0,0,0.00
2013-1-23,15,6,-2,-20,-27,-34,19,19,19,30.11,30.03,0,0,0,0.00
2013-1-24,17,5,-8,-12,-23,-35,48,27,19,30.22,30.06,0,0,0,0.00
2013-1-25,24,12,-1,-1,-20,-33,48,22,19,30.29,30.00,0,0,0,0.00
2013-1-26,23,13,4,-1,-13,-27,57,34,19,30.22,29.96,0,0,0,0.00
2013-1-27,29,15,2,-6,-14,-27,47,28,19,30.41,30.21,0,0,0,0.00
2013-1-28,30,22,7,18,5,-10,71,51,19,30.41,29.93,0,0,0,0.00
2013-1-29,41,31,25,28,23,18,82,72,57,30.12,29.94,0,0,0,0.00
2013-1-30,55,42,33,54,39,28,96,89,83,30.06,29.34,0,0,0,0.00
2013-1-31,59,45,17,58,27,-9,96,59,19,29.56,28.92,0,0,0,0.00
2013-2-1,32,25,18,-1,-11,-18,33,20,19,30.05,29.57,0,0,0,0.00
2013-2-2,33,21,9,0,-12,-24,45,23,19,30.19,29.97,0,0,0,0.00
2013-2-3,34,21,11,13,7,0,68,54,35,29.99,29.70,0,0,0,0.00
2013-2-4,30,19,11,10,-2,-14,72,45,19,29.89,29.70,0,0,0,0.00
2013-2-5,35,25,16,15,5,-7,65,46,19,29.95,29.85,0,0,0,0.00
2013-2-6,38,27,19,25,6,-17,74,46,19,30.26,29.84,0,0,0,0.00
2013-2-7,34,21,6,6,-8,-20,61,31,19,30.46,30.26,0,0,0,0.00
2013-2-8,33,26,18,20,10,-12,71,53,19,30.37,29.64,0,0,0,0.00
2013-2-9,28,20,14,14,-1,-21,75,45,19,30.20,29.65,0,0,0,0.00
2013-2-10,38,14,-10,0,-15,-37,50,28,19,30.39,30.20,0,0,0,0.00
2013-2-11,36,28,8,30,18,-6,83,68,50,30.28,29.58,0,0,0,0.00
2013-2-12,45,36,30,32,23,14,87,62,38,29.86,29.60,0,0,0,0.00
2013-2-13,48,36,30,21,14,1,65,43,19,29.82,29.66,0,0,0,0.00
2013-2-14,45,32,22,20,12,0,70,49,19,29.92,29.66,0,0,0,0.00
2013-2-15,51,34,20,32,22,12,81,63,38,29.93,29.83,0,0,0,0.00
2013-2-16,43,34,27,30,14,-10,81,50,19,29.91,29.69,0,0,0,0.00
2013-2-17,28,21,12,-10,-15,-22,19,19,19,29.76,29.47,0,0,0,0.00
2013-2-18,30,17,9,-7,-17,-25,39,20,19,30.11,29.76,0,0,0,0.00
2013-2-19,50,30,11,30,14,-8,76,52,31,30.12,29.52,0,0,0,0.00
2013-2-20,36,29,22,29,3,-13,79,36,19,29.79,29.52,0,0,0,0.00
2013-2-21,30,25,21,2,-5,-13,38,27,19,30.02,29.76,0,0,0,0.00
2013-2-22,47,37,21,18,10,-14,64,35,19,30.33,30.02,0,0,0,0.00
2013-2-23,38,34,32,29,23,18,80,64,55,30.24,29.90,0,0,0,0.00
2013-2-25,39,34,31,26,24,22,78,69,53,30.18,30.10,0,0,0,0.00
2013-2-26,47,36,30,32,25,20,85,65,39,30.26,30.06,0,0,0,0.00
2013-2-27,42,38,33,37,31,22,84,78,58,30.06,29.53,0,0,0,0.00
2013-2-28,49,37,30,37,30,26,89,77,56,29.58,29.49,0,0,0,0.00
2013-3-1,47,36,28,37,23,17,93,62,36,29.66,29.50,0,0,0,0.00
2013-3-2,44,36,32,20,18,14,58,48,35,29.66,29.58,0,0,0,0.00
2013-3-3,40,32,29,22,16,13,60,51,46,29.63,29.55,0,0,0,0.00
2013-3-4,40,31,23,14,9,-3,54,40,19,29.75,29.61,0,0,0,0.00
2013-3-5,50,35,25,24,16,8,63,45,29,30.01,29.75,0,0,0,0.00
2013-3-6,47,38,30,32,25,19,70,60,46,30.02,29.96,0,0,0,0.00
2013-3-7,40,34,32,28,23,19,82,64,50,30.01,29.96,0,0,0,0.00
2013-3-8,39,34,30,29,24,16,83,66,43,30.12,29.90,0,0,0,0.00
2013-3-9,63,39,25,20,13,-2,60,37,19,30.28,30.11,0,0,0,0.00
2013-3-10,63,36,20,32,21,12,80,56,24,30.35,30.20,0,0,0,0.00
2013-3-11,56,44,35,37,31,24,71,59,42,30.25,30.06,0,0,0,0.00
2013-3-12,55,50,44,51,44,36,90,81,71,30.06,29.63,0,0,0,0.00
2013-3-13,54,40,28,35,20,-2,84,51,19,29.77,29.69,0,0,0,0.00
2013-3-14,36,30,22,18,-1,-14,47,28,19,29.81,29.73,0,0,0,0.05
2013-3-15,47,31,19,22,4,-16,66,34,19,29.83,29.60,0,0,0,0.00
2013-3-16,47,33,22,19,3,-9,63,29,19,29.83,29.66,0,0,0,0.00
2013-3-17,46,28,20,6,-2,-15,46,28,19,30.25,29.82,0,0,0,0.00
2013-3-18,48,31,11,14,-3,-20,53,24,19,30.39,30.11,0,0,0,0.00
2013-3-19,39,32,28,31,24,15,81,70,55,30.11,29.58,0,0,0,0.00
2013-3-20,52,30,19,25,10,-6,80,48,19,29.76,29.66,0,0,0,0.00
2013-3-21,49,30,15,21,4,-10,75,40,19,29.76,29.54,0,0,0,0.00
2013-3-22,44,29,15,13,5,-12,61,37,19,29.73,29.59,0,0,0,0.00
2013-3-23,47,35,26,16,6,-6,54,32,19,29.78,29.65,0,0,0,0.00
2013-3-24,58,35,21,20,9,-1,66,37,19,29.82,29.67,0,0,0,0.00
2013-3-25,51,37,25,24,16,4,72,45,19,29.71,29.44,0,0,0,0.00
2013-3-26,51,39,23,27,16,-4,60,41,19,29.76,29.51,0,0,0,0.00
2013-3-27,61,37,18,31,17,7,79,49,19,29.84,29.72,0,0,0,0.00
2013-3-28,55,43,34,32,24,18,72,49,27,29.99,29.83,0,0,0,0.00
2013-3-29,59,43,27,38,23,7,88,51,19,30.02,29.94,0,0,0,0.00
2013-3-30,66,43,25,32,17,-3,80,41,19,30.06,29.96,0,0,0,0.00
2013-3-31,64,42,21,35,21,13,76,50,19,30.06,29.64,0,0,0,0.00
2013-4-1,65,47,38,46,34,-1,88,64,19,29.68,29.47,0,0,0,0.00
2013-4-5,67,53,37,24,16,2,44,25,19,29.86,29.62,0,0,0,0.00
2013-4-6,63,38,24,20,4,-10,49,26,19,30.25,29.86,0,0,0,0.00
2013-4-7,63,42,22,34,20,6,70,45,22,30.24,29.92,0,0,0,0.00
2013-4-8,89,52,34,44,33,23,88,55,19,30.02,29.91,0,0,0,0.00
2013-4-9,84,57,44,52,40,31,88,57,19,29.96,29.82,0,0,0,0.00
2013-4-10,74,57,46,51,46,41,91,69,36,29.93,29.77,0,0,0,0.00
2013-4-11,60,50,38,50,36,23,92,63,31,30.08,29.77,0,0,0,0.00
2013-4-12,41,38,36,37,33,30,87,83,75,30.08,29.74,0,0,0,0.00
2013-4-13,58,45,34,39,34,30,91,69,37,29.87,29.71,0,0,0,0.00
2013-4-14,57,43,28,42,27,4,96,58,19,30.18,29.87,0,0,0,0.00
2013-4-15,83,47,25,36,26,19,87,51,19,30.33,30.17,0,0,0,0.00
2013-4-16,73,51,32,49,37,23,85,62,30,30.32,30.02,0,0,0,0.00
2013-4-17,90,58,40,49,32,16,83,43,19,30.27,30.03,0,0,0,0.00
2013-4-18,70,43,30,40,29,23,88,62,19,30.35,30.26,0,0,0,0.00
2013-4-20,70,54,38,39,23,12,56,31,19,30.21,29.79,0,0,0,0.00
2013-4-21,74,41,26,28,13,1,66,35,19,30.60,30.21,0,0,0,0.00
2013-4-22,79,43,25,33,23,16,84,51,19,30.66,30.50,0,0,0,0.00
2013-4-23,48,41,34,35,30,22,78,65,58,30.51,30.07,0,0,0,0.00
2013-4-24,98,58,41,49,39,35,83,55,19,30.07,29.73,0,0,0,0.00
2013-4-25,84,54,33,47,30,15,83,46,19,30.21,29.78,0,0,0,0.00
2013-4-26,90,50,27,42,28,20,88,50,19,30.36,30.21,0,0,0,0.00
2013-4-27,63,55,40,33,30,26,63,40,25,30.35,30.20,0,0,0,0.00
2013-4-28,95,57,34,46,32,21,90,46,19,30.28,30.12,0,0,0,0.00
2013-4-29,77,58,44,44,31,15,72,39,19,30.20,30.14,0,0,0,0.00
2013-4-30,93,62,45,44,31,14,70,37,19,30.29,30.18,0,0,0,0.00
2013-5-1,100,58,32,50,31,24,81,43,19,30.41,30.28,0,0,0,0.00
2013-5-2,105,62,37,55,37,24,89,47,19,30.40,30.21,0,0,0,0.00
2013-5-3,67,52,44,39,32,28,73,47,31,30.46,30.32,0,0,0,0.05
2013-5-4,99,58,37,50,35,16,91,50,19,30.32,30.16,0,0,0,0.00
2013-5-5,100,55,31,50,32,24,85,48,19,30.26,30.13,0,0,0,0.00
2013-5-6,102,58,36,52,37,29,86,54,19,30.24,30.05,0,0,0,0.00
2013-5-7,101,64,40,51,44,37,89,56,19,30.12,30.00,0,0,0,0.00
2013-5-8,65,55,52,58,50,48,89,84,73,30.11,30.06,0,0,0,0.00
2013-5-27,55,51,48,42,41,39,78,68,55,30.12,30.07,0,0,0,0.00
2013-5-28,80,60,40,51,43,36,91,59,24,30.18,30.08,5,0,6,0.00
2013-5-29,93,66,58,66,59,51,92,80,37,30.11,29.89,2,0,6,0.00
2013-5-30,107,76,63,70,64,57,96,71,22,30.06,29.96,6,0,6,0.00
2013-5-31,116,80,62,71,62,50,96,61,19,30.06,29.88,3,0,6,0.00
2013-6-1,116,80,61,67,62,54,92,60,19,29.94,29.80,7,0,8,0.00
2013-6-2,107,76,66,67,64,59,91,68,24,29.84,29.68,8,0,12,0.00
2013-6-3,94,70,54,69,60,43,96,74,29,29.83,29.73,5,0,6,0.00
2013-6-4,98,62,48,49,43,35,85,55,19,30.05,29.83,10,1,12,0.00
2013-6-5,90,64,47,55,47,40,91,60,19,30.15,30.03,5,0,5,0.00
2013-6-6,78,63,51,54,51,44,89,68,30,30.13,30.02,6,0,7,0.20
2013-6-7,57,56,53,53,52,49,87,85,83,30.03,29.73,28,0,58,1.17
2013-6-8,91,63,52,65,55,48,87,75,42,29.98,29.60,5,0,9,0.59
2013-6-9,97,67,50,63,54,46,86,66,31,30.11,29.98,0,0,0,0.00
2013-6-10,68,60,51,60,55,46,87,82,72,30.14,29.89,0,0,58,0.81
2013-6-11,71,61,57,61,56,53,87,84,71,29.89,29.52,0,0,0,0.79
2013-6-12,84,65,53,59,53,48,87,66,42,29.79,29.55,0,0,0,0.00
2013-6-13,59,54,48,55,50,44,87,85,82,29.78,29.60,0,0,0,0.93
2013-6-14,95,61,50,63,52,46,88,73,32,29.76,29.58,0,0,0,0.36
2013-6-15,54,53,51,49,48,46,85,84,84,29.81,29.76,0,0,0,0.00
2013-6-16,73,69,65,58,57,56,75,66,57,29.76,29.65,0,0,0,0.00
2013-6-17,93,68,55,66,58,50,85,71,41,29.86,29.72,0,0,0,0.10
2013-6-18,76,63,56,64,57,53,87,83,66,29.88,29.82,0,0,0,0.12
2013-6-19,95,65,52,60,51,46,87,64,30,30.11,29.85,0,0,0,0.04
2013-6-20,98,65,45,63,51,40,84,63,31,30.22,30.11,0,0,0,0.00
2013-6-21,92,69,53,71,58,48,84,69,45,30.21,30.13,0,0,0,0.00
2013-6-22,101,73,58,68,59,53,84,64,33,30.18,30.04,0,0,0,0.00
2013-6-23,106,78,62,76,64,55,79,63,37,30.11,29.94,0,0,0,0.00
2013-6-24,106,78,67,76,67,61,85,70,37,29.99,29.85,0,0,0,0.08
2013-6-25,104,77,62,76,66,58,87,73,39,29.91,29.68,0,0,0,0.04
2013-6-26,85,74,66,70,66,62,87,76,57,29.77,29.70,0,0,0,0.02
2013-6-27,87,73,65,72,66,61,87,79,58,29.77,29.64,0,0,0,0.00
2013-6-28,101,73,65,76,66,61,88,81,45,29.64,29.40,0,0,0,1.16
2013-6-29,97,76,68,74,67,63,88,76,47,29.66,29.43,16,1,17,0.41
2013-6-30,92,77,68,74,68,64,85,74,56,29.88,29.66,18,2,20,0.00
2013-7-1,76,73,70,71,68,65,87,85,81,30.01,29.87,2,0,4,2.01
2013-7-2,89,76,71,76,70,66,88,80,62,30.11,30.00,15,1,16,0.02
2013-7-3,97,80,72,76,70,67,85,72,49,30.16,30.08,17,2,20,0.00
2013-7-4,106,83,72,78,71,66,85,69,40,30.17,30.04,21,4,21,0.00
2013-7-5,112,84,70,80,71,65,84,67,37,30.13,29.99,20,5,22,0.00
2013-7-6,97,79,70,74,69,65,85,73,45,30.05,29.94,18,3,20,0.00
2013-7-7,100,77,68,79,68,63,86,76,52,29.99,29.87,20,4,21,2.97
2013-7-8,99,77,69,74,69,65,88,78,45,29.98,29.86,18,2,20,0.06
2013-7-9,85,74,69,73,67,64,87,81,66,30.03,29.96,18,0,19,0.00
2013-7-10,92,75,70,78,69,65,87,82,63,29.98,29.73,14,1,58,0.18
2013-7-11,90,75,67,74,68,62,88,80,58,29.88,29.72,18,2,21,0.00
2013-7-12,96,74,65,69,61,57,78,65,42,30.13,29.88,13,1,16,0.00
2013-7-13,79,70,64,71,64,57,85,80,75,30.24,30.13,7,0,13,0.06
2013-7-14,103,80,70,77,70,66,87,72,44,30.26,30.15,20,4,22,0.02
2013-7-15,107,80,68,78,69,63,86,71,38,30.17,30.06,20,4,20,0.00
2013-7-16,108,84,67,75,68,62,84,63,33,30.12,30.06,21,4,21,0.00
2013-7-17,110,82,66,79,69,61,85,68,37,30.14,29.96,18,4,22,0.00
2013-7-18,109,83,70,79,71,65,85,69,36,29.98,29.88,20,4,21,0.00
2013-7-19,105,84,70,78,71,65,85,67,40,29.89,29.68,21,3,22,0.00
2013-7-20,96,80,66,77,69,60,83,70,44,29.78,29.63,21,3,21,0.00
2013-7-21,74,67,64,64,60,59,83,78,69,29.92,29.79,0,0,0,0.00
2013-7-22,95,74,63,72,65,58,85,75,45,29.95,29.78,18,1,21,0.26
2013-7-23,84,74,70,76,68,65,87,85,74,29.78,29.49,13,0,15,1.49
2013-7-24,90,75,65,70,64,53,88,69,43,29.92,29.54,16,1,16,0.00
2013-7-25,69,62,57,57,52,46,84,69,61,30.03,29.92,5,0,6,0.02
2013-7-26,73,64,58,65,58,54,87,83,74,30.01,29.93,3,0,5,0.18
2013-7-27,92,69,56,71,60,52,87,76,48,30.01,29.92,18,1,20,0.00
2013-7-28,72,70,67,65,63,62,83,79,77,29.95,29.91,0,0,1,0.00
2013-7-29,104,75,65,72,63,56,85,69,34,30.01,29.90,18,2,22,0.00
2013-7-30,94,70,56,64,57,51,84,65,36,30.07,30.00,10,1,14,0.00
2013-7-31,95,69,55,64,57,50,85,68,37,30.11,29.98,20,1,20,0.00
2013-8-1,82,65,56,67,59,51,86,80,60,30.00,29.80,12,0,12,0.20
2013-8-2,93,72,64,67,61,57,87,71,39,29.83,29.74,20,1,20,0.28
2013-8-3,94,68,57,69,59,52,85,73,45,29.83,29.74,13,0,14,0.00
2013-8-4,87,65,52,62,54,48,86,70,43,29.88,29.75,9,0,14,0.00
2013-8-5,74,57,49,52,48,44,85,73,43,29.96,29.87,10,1,10,0.00
2013-8-7,89,69,53,63,56,48,84,66,42,30.13,30.03,12,1,17,0.00
2013-8-8,87,74,67,72,65,58,84,74,60,30.03,29.94,8,0,11,0.00
2013-8-9,76,72,68,72,68,65,88,86,79,29.96,29.71,8,0,8,4.38
2013-8-10,95,71,56,66,58,46,89,67,33,29.99,29.77,14,1,15,0.00
2013-8-11,97,65,49,65,53,44,85,68,34,30.06,29.95,14,0,18,0.00
2013-8-12,100,70,56,68,58,51,85,68,35,29.99,29.86,17,2,20,0.00
2013-8-13,74,67,62,68,62,56,87,83,79,29.88,29.63,12,0,13,0.40
2013-8-14,77,62,52,60,53,47,87,72,48,29.94,29.65,8,1,9,0.02
2013-8-15,91,60,46,60,50,42,85,70,34,30.08,29.94,7,0,12,0.00
2013-8-16,93,64,48,63,52,44,85,69,34,30.15,30.07,14,1,15,0.00
2013-8-17,97,66,49,68,55,45,85,70,36,30.23,30.15,16,1,18,0.00
2013-8-18,80,65,54,66,58,49,85,78,59,30.22,30.05,0,0,0,0.00
2013-8-19,81,67,55,66,58,51,86,75,52,30.05,29.93,13,0,16,0.00
2013-8-20,97,70,54,70,59,50,86,72,38,30.06,29.95,18,3,21,0.00
2013-8-21,98,71,55,70,60,50,86,71,39,30.12,29.98,21,3,25,0.00
2013-8-22,72,64,58,64,58,53,85,83,76,30.00,29.79,0,0,0,0.00
2013-8-23,96,73,63,65,60,55,86,67,35,29.98,29.80,13,1,18,0.00
2013-8-24,80,65,53,56,52,47,80,65,43,30.29,30.21,1,0,2,0.00
2013-8-25,93,64,46,64,52,41,85,68,38,30.33,30.14,16,1,19,0.00
2013-8-26,85,69,60,68,59,53,82,73,56,30.14,29.87,6,0,9,0.00
2013-8-27,70,69,68,65,64,63,85,84,83,29.84,29.82,0,0,0,0.12
2013-8-28,69,68,66,64,63,62,85,85,85,29.85,29.82,0,0,0,0.00
2013-8-29,75,69,63,66,61,57,85,76,68,30.01,29.98,3,0,5,0.00
2013-8-30,63,60,59,58,56,54,86,85,83,29.98,29.92,0,0,0,0.00
2013-8-31,78,74,72,70,68,68,86,82,77,29.77,29.73,7,0,7,0.02
2013-9-1,82,72,68,75,68,64,88,85,78,29.82,29.75,5,0,58,0.34
2013-9-2,79,73,69,74,68,65,88,86,81,29.79,29.64,13,0,17,0.20
2013-9-3,75,68,58,69,62,53,89,82,69,29.80,29.65,8,0,11,0.00
2013-9-4,80,65,52,61,54,48,88,72,45,29.88,29.79,9,1,17,0.00
2013-9-5,74,61,48,62,51,42,87,72,47,30.10,29.83,8,0,8,0.00
2013-9-6,70,54,40,49,43,35,86,69,42,30.21,30.06,3,0,6,0.00
2013-9-7,80,59,42,58,49,37,85,70,46,30.06,29.82,14,0,14,0.00
2013-9-8,75,64,54,61,54,42,85,71,47,29.97,29.74,7,1,8,0.00
2013-9-9,69,61,52,51,48,46,77,64,51,30.12,30.08,3,0,3,0.00
2013-9-10,76,64,51,70,59,45,87,84,77,30.09,29.97,7,0,8,0.67
2013-9-11,93,76,64,78,68,60,88,78,60,30.03,29.88,21,3,21,0.02
2013-9-12,86,72,64,74,66,60,87,81,67,29.92,29.62,9,0,13,1.65
2013-9-13,76,66,57,66,60,51,88,81,67,29.75,29.55,7,0,13,0.04
2013-9-14,67,58,48,53,49,44,86,74,58,30.02,29.75,5,0,7,0.00
2013-9-15,70,55,41,54,47,36,86,75,53,30.14,30.00,9,0,13,0.00
2013-9-16,68,56,46,58,48,36,86,75,60,30.22,29.98,5,0,5,0.06
2013-9-17,63,50,39,45,39,32,81,67,49,30.38,30.22,5,0,7,0.00
2013-9-18,70,50,35,53,42,30,84,74,53,30.29,30.09,7,0,14,0.00
2013-9-19,74,56,39,57,47,34,86,73,50,30.11,29.98,17,0,18,0.00
2013-9-20,78,58,41,61,50,37,86,75,54,30.04,29.93,17,0,17,0.00
2013-9-21,75,63,51,63,56,46,85,79,64,29.98,29.62,7,0,9,0.02
2013-9-22,68,61,50,62,51,42,87,72,53,29.82,29.55,8,1,10,0.67
2013-9-23,63,50,38,46,40,33,85,70,52,29.98,29.82,6,1,7,0.00
2013-9-24,66,50,34,46,39,30,84,69,45,29.98,29.78,8,1,10,0.00
2013-9-25,69,54,37,53,45,33,85,73,53,29.93,29.81,0,0,0,0.00
2013-9-26,66,56,46,50,47,40,83,72,55,30.07,29.93,0,0,0,0.00
2013-9-27,65,55,45,53,48,40,84,77,62,30.23,30.06,0,0,0,0.00
2013-9-28,73,56,43,58,48,39,86,77,57,30.29,30.19,15,0,18,0.00
2013-9-29,70,54,43,57,46,38,86,76,55,30.20,30.03,3,0,13,0.00
2013-9-30,70,53,39,55,45,35,86,75,53,30.06,29.90,0,0,0,0.00
2013-10-1,74,56,40,58,48,36,86,75,54,29.95,29.81,15,0,18,0.00
2013-10-2,79,60,44,62,51,39,86,74,53,29.93,29.83,10,1,16,0.00
2013-10-3,75,56,41,57,47,37,86,74,49,30.06,29.93,7,0,10,0.00
2013-10-4,65,55,46,60,50,41,86,84,80,30.06,29.98,6,0,6,0.53
2013-10-5,72,63,57,62,57,53,87,82,70,30.06,29.99,2,0,3,0.04
2013-10-6,61,58,55,57,54,51,87,87,86,30.14,30.03,3,0,3,0.36
2013-10-7,76,67,54,69,62,50,88,83,71,29.88,29.70,12,2,12,1.03
2013-10-8,65,51,40,50,43,35,88,75,46,30.32,29.88,10,1,10,0.02
2013-10-9,64,47,34,48,39,31,87,76,53,30.42,30.30,6,0,7,0.00
2013-10-10,58,47,35,48,41,31,86,80,67,30.31,30.12,2,0,4,0.00
2013-10-11,70,52,38,56,44,35,87,76,53,30.12,30.02,8,0,8,0.00
2013-10-12,63,51,38,54,45,34,87,80,70,30.32,30.09,5,1,7,0.00
2013-10-13,65,54,46,50,46,40,83,74,59,30.38,30.31,3,0,5,0.00
2013-10-14,66,50,34,51,42,30,87,76,56,30.33,30.17,5,0,8,0.00
2013-10-15,73,58,46,57,49,41,85,73,53,30.21,30.08,7,0,10,0.00
2013-10-16,62,52,43,52,45,39,86,80,66,30.11,29.85,2,0,2,0.00
2013-10-17,71,59,49,58,52,44,86,78,58,29.85,29.64,15,0,17,0.02
2013-10-18,66,57,39,58,47,34,88,71,50,29.88,29.55,12,2,13,0.08
2013-10-19,66,48,32,49,39,28,86,73,48,29.93,29.68,6,0,8,0.00
2013-10-20,59,48,35,45,37,29,86,67,41,29.98,29.65,14,2,15,0.02
2013-10-21,66,47,31,46,37,27,85,70,45,30.08,29.92,7,0,9,0.00
2013-10-22,63,47,35,52,40,31,85,75,63,29.92,29.67,3,0,6,0.00
2013-10-23,53,40,29,40,32,25,85,74,56,29.76,29.54,2,0,5,0.00
2013-10-24,55,39,28,35,28,23,86,66,38,29.87,29.62,12,1,15,0.00
2013-10-25,51,35,25,35,25,19,83,67,45,30.12,29.86,10,1,14,0.00
2013-10-26,56,39,22,38,27,17,84,64,41,30.11,29.80,10,1,12,0.00
2013-10-27,54,44,30,36,30,23,74,59,44,30.02,29.75,12,2,13,0.00
2013-10-28,58,39,24,38,28,19,83,66,46,30.29,30.02,12,1,15,0.00
2013-10-29,48,33,25,28,22,18,80,66,45,30.40,30.29,5,0,7,0.00
2013-10-30,52,37,26,39,29,19,82,74,61,30.30,30.13,1,0,2,0.00
2013-10-31,56,42,28,53,37,24,87,84,82,30.18,29.72,6,0,6,0.24
2013-11-1,67,59,47,59,54,43,88,82,64,29.72,29.40,9,1,13,0.16
2013-11-2,64,49,36,47,41,32,86,74,54,29.70,29.53,8,0,9,0.00
2013-11-3,48,40,29,42,27,16,82,60,47,30.38,29.70,10,3,10,0.00
2013-11-4,43,31,21,21,17,14,76,57,41,30.63,30.38,9,1,9,0.00
2013-11-5,49,34,21,33,25,15,80,70,55,30.64,30.43,5,0,6,0.00
2013-11-6,61,48,36,45,39,30,81,71,55,30.44,29.98,7,1,8,0.00
2013-11-7,60,50,38,54,43,26,84,78,60,29.98,29.66,12,1,13,0.06
2013-11-8,47,35,25,34,24,18,81,66,47,30.05,29.79,16,2,20,0.00
2013-11-9,46,35,22,28,24,16,79,64,49,30.18,29.95,10,1,13,0.00
2013-11-10,53,43,36,42,33,27,83,69,56,29.95,29.70,17,1,18,0.00
2013-11-11,50,43,34,32,28,22,65,54,47,30.06,29.85,14,2,18,0.02
2013-11-12,46,34,24,33,20,12,74,58,49,30.17,29.83,10,3,14,0.02
2013-11-13,35,25,16,15,12,8,73,58,41,30.27,30.12,9,1,9,0.00
2013-11-14,50,33,23,26,20,14,72,59,39,30.13,30.00,8,0,10,0.00
2013-11-15,58,35,19,31,21,13,79,59,33,30.16,30.04,6,0,6,0.00
2013-11-16,56,40,29,36,28,21,77,64,44,30.25,30.13,5,0,6,0.00
2013-11-17,54,44,29,49,38,22,84,78,70,30.24,29.74,1,0,2,0.02
2013-11-18,61,55,41,56,44,30,87,70,51,29.75,29.48,13,2,16,0.30
2013-11-19,44,38,28,30,22,15,59,52,45,30.27,29.65,17,5,18,0.02
2013-11-20,39,28,16,18,14,9,73,56,41,30.57,30.27,9,2,12,0.00
2013-11-21,46,29,13,28,19,8,79,66,50,30.59,30.32,3,0,58,0.00
2013-11-22,47,41,35,42,35,26,85,79,68,30.32,29.79,1,0,1,0.16
2013-11-23,45,38,31,41,25,17,86,61,48,29.93,29.77,13,4,18,0.04
2013-11-24,26,22,17,4,1,-1,45,40,33,30.19,29.96,17,7,21,0.00
2013-11-25,32,22,9,14,6,-4,62,50,43,30.34,30.18,7,1,9,0.00
2013-11-26,38,33,27,28,20,13,79,61,51,30.27,29.93,3,0,7,0.18
2013-11-27,49,41,34,44,37,28,86,84,77,29.93,29.24,12,1,14,2.06
2013-11-28,35,26,16,28,14,8,77,61,45,30.39,29.49,13,3,18,0.02
2013-11-29,32,23,13,18,13,6,80,67,48,30.67,30.39,10,1,10,0.00
2013-11-30,32,20,7,18,11,2,79,69,52,30.74,30.35,2,0,5,0.00
2013-12-1,42,33,27,33,26,18,79,74,69,30.35,29.96,1,0,2,0.00
2013-12-2,39,34,27,33,29,23,84,81,78,29.97,29.85,0,0,0,0.00
2013-12-3,46,34,23,36,29,19,85,80,68,29.92,29.80,5,0,6,0.00
2013-12-4,46,29,20,33,22,16,85,78,58,30.12,29.92,2,0,5,0.00
2013-12-5,45,37,29,42,32,24,87,83,79,30.12,29.85,3,0,4,0.08
2013-12-6,52,44,32,48,39,28,88,83,71,30.11,29.80,9,1,10,0.32
2013-12-7,37,32,23,30,25,18,87,78,63,30.41,30.03,22,2,22,0.10
2013-12-8,32,26,19,25,19,14,84,74,60,30.53,30.40,3,0,5,0.00
2013-12-9,34,30,25,29,25,18,86,80,68,30.41,29.86,9,0,9,0.02
2013-12-10,34,28,15,30,24,11,87,85,83,29.96,29.75,3,0,6,0.00
2013-12-11,29,19,12,23,14,8,85,82,75,30.17,29.96,6,0,7,0.00
2013-12-12,23,16,6,17,8,1,84,72,53,30.24,30.00,8,1,10,0.00
2013-12-13,30,18,5,18,10,0,81,71,58,30.31,29.95,7,1,9,0.00
2013-12-14,19,14,12,9,5,2,78,68,61,30.52,30.04,6,1,7,0.00
2013-12-15,30,23,14,23,17,9,82,77,69,30.04,29.44,7,0,10,0.00
2013-12-16,28,20,8,16,9,0,81,64,47,30.14,29.67,15,2,16,0.00
2013-12-17,14,7,-6,8,0,-13,77,74,70,30.19,29.89,0,0,2,0.00
2013-12-18,31,20,9,21,13,4,79,75,65,30.03,29.86,6,0,6,0.00
2013-12-19,38,24,7,27,18,2,82,76,61,30.06,29.90,7,0,8,0.00
2013-12-20,45,33,25,35,27,20,83,79,65,30.05,29.85,2,0,4,0.26
2013-12-21,52,38,28,43,33,24,85,80,69,29.91,29.79,3,0,5,0.08
2013-12-22,58,48,36,54,44,31,88,86,82,29.88,29.65,8,0,8,0.02
2013-12-23,44,40,35,41,36,28,88,86,76,30.07,29.85,12,1,13,0.67
2013-12-24,35,30,20,28,19,7,75,62,51,30.21,30.01,9,3,18,0.00
2013-12-25,24,17,12,7,5,1,71,58,47,30.45,30.21,9,2,13,0.00
2013-12-26,30,22,13,22,15,7,81,74,66,30.40,30.04,2,0,3,0.00
2013-12-27,35,21,8,26,14,3,82,77,64,30.23,30.14,5,0,7,0.00
2013-12-28,42,26,14,30,20,9,84,76,60,30.18,29.95,6,0,6,0.04
2013-12-29,37,32,23,33,27,18,87,83,76,29.98,29.41,10,1,15,1.06
2013-12-30,35,26,12,30,17,3,87,68,50,30.13,29.53,14,2,17,0.02
2013-12-31,25,17,8,13,8,2,78,68,56,30.15,29.96,12,1,15,0.00
2014-1-1,28,19,8,14,8,1,75,62,47,30.31,30.13,9,1,11,0.00
2014-1-2,20,15,6,13,8,-1,75,74,68,30.27,29.76,10,2,11,0.00